Time;durP1;ratioP1;P1;durP2;ratioP2;P2;SDS_P1;SDS_P2;PMS_P1;PMS_P2;Temp;Humidity;BMP_temperature;BMP_pressure;BME280_temperature;BME280_humidity;BME280_pressure;Samples;Min_cycle;Max_cycle;Signal;HPM_P1;HPM_P2
2023/06/30 00:08:43;;;;;;;7.40;4.90;;;21.40;94.00;;;;;;20747893;28;20267;-63
2023/06/30 00:18:46;;;;;;;8.53;4.90;;;21.30;94.30;;;;;;20758729;28;20687;-64
2023/06/30 00:28:47;;;;;;;6.70;5.03;;;21.20;94.60;;;;;;20759284;28;20700;-63
2023/06/30 00:38:51;;;;;;;7.17;5.50;;;21.10;94.90;;;;;;20760049;28;20303;-65
2023/06/30 00:48:53;;;;;;;7.03;5.00;;;21.10;95.30;;;;;;20756013;28;20229;-68
2023/06/30 00:58:56;;;;;;;6.40;5.30;;;21.00;95.50;;;;;;20756619;28;20702;-69
2023/06/30 01:09:13;;;;;;;6.87;5.30;;;20.90;95.70;;;;;;20756880;28;20271;-71
2023/06/30 01:19:26;;;;;;;6.87;5.37;;;20.80;95.90;;;;;;20755956;28;20300;-70
2023/06/30 01:29:28;;;;;;;8.50;5.57;;;20.80;96.30;;;;;;20768840;28;20293;-71
2023/06/30 01:39:30;;;;;;;8.90;5.20;;;20.70;96.60;;;;;;20786631;28;20308;-71
2023/06/30 01:49:33;;;;;;;6.83;5.60;;;20.50;96.70;;;;;;20753765;28;20300;-70
2023/06/30 01:59:35;;;;;;;7.80;5.47;;;20.50;97.50;;;;;;20753451;28;20232;-62
2023/06/30 02:09:36;;;;;;;6.77;5.60;;;20.30;97.20;;;;;;20752257;28;20275;-66
2023/06/30 02:19:48;;;;;;;6.90;5.27;;;20.30;97.80;;;;;;20751665;28;20309;-71
2023/06/30 02:29:50;;;;;;;8.67;5.90;;;20.20;98.00;;;;;;20750641;28;20331;-68
2023/06/30 02:39:52;;;;;;;6.70;5.60;;;20.20;98.20;;;;;;20750429;28;20303;-71
2023/06/30 02:49:54;;;;;;;9.37;5.80;;;20.10;98.30;;;;;;20749542;28;20240;-70
2023/06/30 02:59:55;;;;;;;7.40;5.67;;;20.10;98.60;;;;;;20749995;28;20230;-70
2023/06/30 03:09:57;;;;;;;6.37;5.67;;;20.10;98.70;;;;;;20748903;28;20247;-68
2023/06/30 03:19:59;;;;;;;7.40;5.47;;;19.90;98.80;;;;;;20752258;28;20212;-70
2023/06/30 03:30:05;;;;;;;7.17;5.97;;;20.00;98.90;;;;;;20747323;28;20239;-69
2023/06/30 03:40:07;;;;;;;8.27;6.17;;;19.90;99.00;;;;;;20773396;28;20246;-68
2023/06/30 03:50:09;;;;;;;7.07;5.33;;;19.80;99.30;;;;;;20763285;28;20366;-63
2023/06/30 04:00:12;;;;;;;8.30;6.03;;;19.80;99.50;;;;;;20773426;28;20690;-64
2023/06/30 04:10:14;;;;;;;9.10;6.10;;;19.80;99.60;;;;;;20774301;28;20707;-64
2023/06/30 04:20:16;;;;;;;9.50;6.10;;;19.90;99.70;;;;;;20760547;28;20295;-63
2023/06/30 04:30:17;;;;;;;10.13;6.00;;;20.00;99.90;;;;;;20760273;28;20248;-64
2023/06/30 04:40:19;;;;;;;8.93;6.20;;;20.10;99.90;;;;;;20759197;28;20327;-64
2023/06/30 04:50:23;;;;;;;15.57;6.50;;;20.10;99.80;;;;;;20758324;28;20241;-65
2023/06/30 05:00:25;;;;;;;8.23;6.13;;;20.20;99.90;;;;;;20757312;28;20213;-68
2023/06/30 05:10:28;;;;;;;11.27;6.93;;;;;;;;;;20756012;28;20259;-64
2023/06/30 05:20:32;;;;;;;9.73;6.43;;;20.50;99.60;;;;;;20755052;28;20664;-65
2023/06/30 05:30:33;;;;;;;11.57;7.37;;;20.50;99.90;;;;;;20755549;28;20290;-67
2023/06/30 05:40:35;;;;;;;15.13;7.87;;;20.60;99.90;;;;;;20798224;28;20205;-65
2023/06/30 05:50:37;;;;;;;24.70;10.50;;;20.70;99.90;;;;;;20754627;28;20260;-74
2023/06/30 06:00:40;;;;;;;17.10;8.87;;;20.80;99.80;;;;;;20754483;28;20846;-67
2023/06/30 06:10:43;;;;;;;14.70;7.97;;;20.90;99.70;;;;;;20750480;28;20249;-68
2023/06/30 06:20:45;;;;;;;16.50;7.40;;;20.90;99.40;;;;;;20750986;28;20635;-69
2023/06/30 06:30:48;;;;;;;13.30;6.70;;;20.80;99.70;;;;;;20750149;28;20589;-65
2023/06/30 06:40:50;;;;;;;11.57;6.70;;;20.70;99.90;;;;;;20747535;28;20664;-73
2023/06/30 06:50:52;;;;;;;11.73;7.00;;;20.70;99.90;;;;;;20744266;28;20328;-71
2023/06/30 07:00:54;;;;;;;28.20;6.77;;;21.10;99.90;;;;;;20747175;28;20212;-68
2023/06/30 07:10:56;;;;;;;10.90;5.53;;;21.50;99.60;;;;;;20748094;28;20279;-70
2023/06/30 07:20:58;;;;;;;19.60;7.87;;;21.70;99.10;;;;;;20745752;28;20205;-72
2023/06/30 07:31:00;;;;;;;16.37;7.40;;;22.20;98.60;;;;;;20748097;28;20608;-74
2023/06/30 07:41:02;;;;;;;15.47;8.03;;;22.40;98.20;;;;;;20746353;28;20217;-67
2023/06/30 07:51:03;;;;;;;15.47;7.33;;;22.50;98.00;;;;;;20746200;28;20245;-67
2023/06/30 08:01:10;;;;;;;15.97;8.00;;;22.80;97.60;;;;;;20745875;28;20644;-67
2023/06/30 08:11:12;;;;;;;15.10;9.10;;;23.00;97.50;;;;;;20782311;28;20383;-64
2023/06/30 08:21:14;;;;;;;11.67;6.97;;;23.10;97.20;;;;;;20746526;28;20411;-65
2023/06/30 08:31:15;;;;;;;14.20;8.60;;;23.40;97.10;;;;;;20752729;28;20248;-74
2023/06/30 08:41:17;;;;;;;19.87;8.40;;;23.60;96.50;;;;;;20760202;28;20248;-70
2023/06/30 08:51:20;;;;;;;12.50;7.70;;;24.00;96.00;;;;;;20757564;28;20640;-66
2023/06/30 09:01:22;;;;;;;8.90;5.77;;;23.90;95.60;;;;;;20756742;28;20217;-72
2023/06/30 09:11:29;;;;;;;9.07;5.90;;;24.10;95.20;;;;;;20756518;28;20277;-76
2023/06/30 09:21:31;;;;;;;11.00;6.23;;;24.20;94.60;;;;;;20766574;28;20216;-81
2023/06/30 09:31:33;;;;;;;8.50;6.40;;;24.40;94.20;;;;;;20790887;28;20241;-70
2023/06/30 09:41:35;;;;;;;9.23;5.83;;;24.40;93.10;;;;;;20793201;28;20292;-66
2023/06/30 09:51:39;;;;;;;7.53;4.73;;;24.50;92.10;;;;;;20784916;28;20272;-63
2023/06/30 10:01:41;;;;;;;6.93;4.53;;;24.50;91.00;;;;;;20783453;28;20219;-68
2023/06/30 10:11:44;;;;;;;7.77;5.07;;;24.50;90.40;;;;;;20793965;28;20790;-70
2023/06/30 10:21:47;;;;;;;7.87;5.17;;;24.70;89.80;;;;;;20784277;28;20289;-60
2023/06/30 10:31:49;;;;;;;9.10;5.67;;;25.10;87.50;;;;;;20785010;28;20323;-64
2023/06/30 10:41:51;;;;;;;7.33;5.03;;;25.30;86.30;;;;;;20793149;28;20209;-67
2023/06/30 10:51:55;;;;;;;8.80;7.43;;;25.50;84.00;;;;;;20819561;28;20236;-71
2023/06/30 11:02:31;;;;;;;11.77;6.13;;;25.90;82.00;;;;;;20892566;28;20718;-65
2023/06/30 11:12:53;;;;;;;12.30;7.37;;;26.00;79.50;;;;;;20822643;28;20232;-70
2023/06/30 11:23:00;;;;;;;13.97;8.57;;;26.00;78.00;;;;;;20810756;28;20236;-64
2023/06/30 11:33:04;;;;;;;13.37;9.13;;;25.60;79.50;;;;;;20910979;28;20246;-66
2023/06/30 11:43:08;;;;;;;11.90;9.10;;;25.10;81.50;;;;;;20909336;28;20208;-67
2023/06/30 11:53:10;;;;;;;15.97;11.57;;;25.10;82.80;;;;;;20818716;28;20324;-63
2023/06/30 12:03:15;;;;;;;20.67;14.43;;;25.20;82.40;;;;;;20895018;28;20232;-64
2023/06/30 12:13:17;;;;;;;24.53;16.30;;;25.00;83.10;;;;;;20924191;28;20743;-71
2023/06/30 12:23:27;;;;;;;22.50;17.03;;;24.90;83.20;;;;;;20792884;28;20567;-68
2023/06/30 12:33:29;;;;;;;27.10;17.37;;;25.00;83.60;;;;;;20790440;28;20713;-66
2023/06/30 12:43:32;;;;;;;25.47;17.80;;;24.50;85.50;;;;;;20795111;28;20235;-71
2023/06/30 12:53:35;;;;;;;21.20;13.73;;;24.20;86.10;;;;;;20792051;28;20245;-69
2023/06/30 13:03:36;;;;;;;26.10;14.63;;;23.90;87.10;;;;;;20912610;28;20314;-69
2023/06/30 13:13:38;;;;;;;15.87;12.07;;;23.60;89.50;;;;;;20858562;28;20237;-69
2023/06/30 13:23:40;;;;;;;18.17;12.27;;;23.50;90.30;;;;;;20782338;28;20295;-69
2023/06/30 13:33:42;;;;;;;17.40;12.50;;;23.60;90.50;;;;;;20753138;28;20735;-68
2023/06/30 13:43:44;;;;;;;19.17;13.63;;;23.60;89.60;;;;;;20753822;28;20661;-71
2023/06/30 13:53:45;;;;;;;15.53;11.53;;;23.90;88.90;;;;;;20753276;28;20302;-68
2023/06/30 14:03:50;;;;;;;14.70;10.60;;;24.20;87.00;;;;;;20909674;28;20262;-70
2023/06/30 14:13:53;;;;;;;13.80;10.57;;;24.20;84.30;;;;;;20915133;28;20228;-69
2023/06/30 14:23:55;;;;;;;15.60;10.03;;;24.30;83.90;;;;;;20804177;28;20299;-66
2023/06/30 14:33:57;;;;;;;13.93;9.13;;;25.00;81.80;;;;;;20781696;28;20327;-69
2023/06/30 14:43:59;;;;;;;13.20;9.33;;;25.00;80.40;;;;;;20791192;28;20669;-68
2023/06/30 14:54:02;;;;;;;10.43;8.53;;;24.70;79.20;;;;;;20781724;28;20261;-64
2023/06/30 15:04:04;;;;;;;18.20;10.23;;;25.20;77.50;;;;;;20795895;28;20230;-70
2023/06/30 15:14:06;;;;;;;11.30;7.97;;;26.10;73.60;;;;;;20800300;28;20754;-69
2023/06/30 15:24:07;;;;;;;13.30;8.87;;;26.30;72.90;;;;;;20781385;28;20210;-72
2023/06/30 15:34:09;;;;;;;13.20;8.50;;;26.00;72.00;;;;;;20783125;28;20236;-72
2023/06/30 15:44:11;;;;;;;12.00;8.37;;;25.90;72.60;;;;;;20798917;28;20587;-71
2023/06/30 15:54:13;;;;;;;10.77;7.60;;;26.30;71.10;;;;;;20763882;28;20272;-62
2023/06/30 16:04:14;;;;;;;10.07;6.83;;;26.70;68.90;;;;;;20925965;28;20324;-73
2023/06/30 16:14:16;;;;;;;8.97;6.63;;;25.00;72.60;;;;;;20923589;28;20572;-70
2023/06/30 16:24:18;;;;;;;12.50;6.20;;;24.40;74.80;;;;;;20924356;28;20211;-63
2023/06/30 16:34:20;;;;;;;9.13;6.17;;;24.10;75.30;;;;;;20923961;28;20394;-72
2023/06/30 16:44:22;;;;;;;10.60;5.93;;;23.60;76.40;;;;;;20868886;28;20205;-74
2023/06/30 16:54:23;;;;;;;10.37;5.80;;;24.20;75.90;;;;;;20800463;28;20327;-70
2023/06/30 17:04:25;;;;;;;10.10;4.70;;;24.30;74.70;;;;;;20848427;28;20243;-73
2023/06/30 17:14:27;;;;;;;6.80;4.87;;;25.90;70.30;;;;;;20838847;28;20237;-68
2023/06/30 17:24:29;;;;;;;4.20;3.80;;;27.80;65.10;;;;;;20824102;28;20214;-73
2023/06/30 17:34:31;;;;;;;4.80;4.00;;;;;;;;;;20789563;28;20267;-76
2023/06/30 17:44:33;;;;;;;3.30;2.92;;;31.70;55.80;;;;;;20835367;28;20221;-75
2023/06/30 17:54:35;;;;;;;3.42;3.00;;;35.90;46.00;;;;;;20838585;28;20671;-63
2023/06/30 18:04:37;;;;;;;4.25;2.67;;;34.00;44.90;;;;;;20915272;28;20232;-74
2023/06/30 18:14:41;;;;;;;3.53;2.87;;;27.70;54.10;;;;;;20916383;28;20235;-63
2023/06/30 18:24:42;;;;;;;3.17;2.53;;;25.50;58.90;;;;;;20916595;28;20265;-74
2023/06/30 18:34:46;;;;;;;3.87;2.37;;;24.50;62.00;;;;;;20914813;28;20275;-66
2023/06/30 18:44:47;;;;;;;6.17;2.43;;;23.80;64.70;;;;;;20914435;28;20207;-72
2023/06/30 18:54:49;;;;;;;3.00;2.47;;;23.30;67.10;;;;;;20851676;28;20240;-70
2023/06/30 19:04:51;;;;;;;5.87;2.47;;;22.90;69.00;;;;;;20787158;28;20323;-70
2023/06/30 19:14:53;;;;;;;3.80;2.70;;;22.50;70.90;;;;;;20787236;28;20237;-74
2023/06/30 19:24:55;;;;;;;2.60;2.30;;;22.10;72.80;;;;;;20785777;28;20205;-73
2023/06/30 19:34:56;;;;;;;2.87;2.50;;;21.90;74.50;;;;;;20804245;28;20239;-68
2023/06/30 19:44:58;;;;;;;4.27;2.40;;;21.70;76.40;;;;;;20788461;28;20569;-73
2023/06/30 19:55:00;;;;;;;3.00;2.60;;;21.70;77.80;;;;;;20794442;28;20411;-72
2023/06/30 20:05:03;;;;;;;2.50;2.27;;;21.60;78.90;;;;;;20780258;28;20244;-69
2023/06/30 20:15:06;;;;;;;6.17;2.70;;;21.50;79.70;;;;;;20794282;28;20237;-69
2023/06/30 20:25:09;;;;;;;3.57;2.60;;;21.40;80.50;;;;;;20781280;28;20209;-70
2023/06/30 20:35:13;;;;;;;2.77;2.43;;;21.10;81.50;;;;;;20758084;28;20248;-66
2023/06/30 20:45:15;;;;;;;2.90;2.60;;;21.00;82.70;;;;;;20768147;28;20300;-63
2023/06/30 20:55:17;;;;;;;3.00;2.43;;;20.90;83.60;;;;;;20776330;28;20653;-63
2023/06/30 21:05:19;;;;;;;3.37;3.00;;;20.70;84.40;;;;;;20869686;28;20317;-64
2023/06/30 21:15:22;;;;;;;4.87;3.27;;;20.60;85.50;;;;;;20835618;28;20263;-65
2023/06/30 21:25:24;;;;;;;6.23;3.40;;;20.50;86.70;;;;;;20836169;28;20208;-66
2023/06/30 21:35:26;;;;;;;7.07;4.13;;;20.30;88.60;;;;;;20834597;28;20338;-67
2023/06/30 21:45:27;;;;;;;6.87;4.23;;;20.20;90.00;;;;;;20834192;28;20210;-67
2023/06/30 21:55:29;;;;;;;4.17;3.27;;;19.90;90.40;;;;;;20825587;28;20345;-68
2023/06/30 22:05:31;;;;;;;5.20;3.30;;;19.80;90.90;;;;;;20915701;28;20250;-70
2023/06/30 22:15:33;;;;;;;3.47;3.17;;;19.70;91.30;;;;;;20922529;28;20235;-63
2023/06/30 22:25:35;;;;;;;5.60;3.40;;;19.70;91.60;;;;;;20913267;28;20609;-64
2023/06/30 22:35:36;;;;;;;4.47;3.00;;;19.50;92.00;;;;;;20913025;28;20721;-62
2023/06/30 22:45:38;;;;;;;12.33;4.33;;;19.40;92.40;;;;;;20914293;28;20300;-62
2023/06/30 22:55:40;;;;;;;6.83;4.23;;;19.20;92.80;;;;;;20899579;28;20265;-61
2023/06/30 23:05:41;;;;;;;12.93;6.53;;;19.00;93.00;;;;;;20777741;28;20311;-62
2023/06/30 23:15:43;;;;;;;23.23;9.57;;;18.80;93.40;;;;;;20748423;28;20237;-67
2023/06/30 23:25:46;;;;;;;23.60;9.83;;;18.60;93.70;;;;;;20748655;28;20265;-63
2023/06/30 23:35:48;;;;;;;9.10;4.47;;;18.40;94.10;;;;;;20763050;28;20241;-62
2023/06/30 23:45:50;;;;;;;9.90;5.20;;;18.30;94.70;;;;;;20747519;28;20217;-65
2023/06/30 23:55:52;;;;;;;6.17;4.30;;;18.20;94.70;;;;;;20776208;28;20244;-63
